Damiansville, Illinois
Current Conditions -  °F | °C
As of 1:58 PM on Thursday 18 Dec 2014 (Local Time) from KBLV Reporting Station
Overcast Overcast  
Wind Chill: 35°   Ceiling: 1600
Heat Index: 35°   Visibility: 10mi
Dew Point: 29°   Wind: 2mph
Humidity: 79%   Direction: 20°NNE
Pressure: 30.23"   Gusts: NA
Location:  38.526°N, 89.6203°W
Report Text: KBLV 181958Z AUTO 02002KT 10SM OVC016 01/M02 A3023 RMK AO2 UPB1901E1922 OVC V BKN SLP245 P0000 T00141019
Loading
Personal Weather Stations






























Interactive Weather Map New forecast layout! Learn more

10-Day Weather Forecast

Advertisements
Track Severe Weather on mobile